createdAt,value
2016-11-21T00:02:28.320Z,1007.415
2016-11-21T00:05:24.422Z,1007.370
2016-11-21T00:08:20.554Z,1007.313
2016-11-21T00:11:16.666Z,1007.321
2016-11-21T00:14:12.637Z,1007.341
2016-11-21T00:17:08.725Z,1007.368
2016-11-21T00:20:04.835Z,1007.422
2016-11-21T00:23:00.965Z,1007.409
2016-11-21T00:25:57.121Z,1007.480
2016-11-21T00:28:53.144Z,1007.470
2016-11-21T00:31:49.236Z,1007.552
2016-11-21T00:34:45.348Z,1007.667
2016-11-21T00:37:41.564Z,1007.648
2016-11-21T00:40:37.547Z,1007.750
2016-11-21T00:43:33.651Z,1007.778
2016-11-21T00:46:29.727Z,1007.753
2016-11-21T00:49:25.859Z,1007.765
2016-11-21T00:52:21.912Z,1007.722
2016-11-21T00:55:18.112Z,1007.740
2016-11-21T00:58:14.160Z,1007.750
2016-11-21T01:01:10.351Z,1007.790
2016-11-21T01:04:06.383Z,1007.861
2016-11-21T01:07:02.550Z,1007.896
2016-11-21T01:09:58.594Z,1007.961
2016-11-21T01:12:54.664Z,1007.954
2016-11-21T01:15:50.674Z,1007.943
2016-11-21T01:18:46.741Z,1007.993
2016-11-21T01:21:42.816Z,1007.943
2016-11-21T01:24:38.966Z,1007.893
2016-11-21T01:27:34.976Z,1007.889
2016-11-21T01:30:31.175Z,1007.885
2016-11-21T01:33:27.191Z,1007.873
2016-11-21T01:36:23.409Z,1007.996
2016-11-21T01:39:19.485Z,1008.001
2016-11-21T01:42:15.623Z,1008.031
2016-11-21T01:45:11.683Z,1008.069
2016-11-21T01:48:07.776Z,1008.116
2016-11-21T01:51:04.012Z,1008.108
2016-11-21T01:54:00.149Z,1008.094
2016-11-21T01:56:56.216Z,1008.117
2016-11-21T01:59:52.381Z,1008.088
2016-11-21T02:02:48.608Z,1008.117
2016-11-21T02:05:44.776Z,1008.191
2016-11-21T02:08:40.899Z,1008.206
2016-11-21T02:11:37.101Z,1008.193
2016-11-21T02:14:33.217Z,1008.215
2016-11-21T02:17:29.326Z,1008.332
2016-11-21T02:20:25.513Z,1008.344
2016-11-21T02:23:21.686Z,1008.398
2016-11-21T02:26:17.844Z,1008.425
2016-11-21T02:29:14.004Z,1008.423
2016-11-21T02:32:10.028Z,1008.437
2016-11-21T02:35:06.223Z,1008.419
2016-11-21T02:38:02.373Z,1008.422
2016-11-21T02:40:58.488Z,1008.353
2016-11-21T02:43:54.595Z,1008.420
2016-11-21T02:46:50.794Z,1008.474
2016-11-21T02:49:46.893Z,1008.533
2016-11-21T02:52:43.104Z,1008.551
2016-11-21T02:55:39.216Z,1008.507
2016-11-21T02:58:35.275Z,1008.546
2016-11-21T03:01:31.277Z,1008.495
2016-11-21T03:04:27.459Z,1008.476
2016-11-21T03:07:23.588Z,1008.432
2016-11-21T03:10:19.750Z,1008.377
2016-11-21T03:13:15.793Z,1008.418
2016-11-21T03:16:11.990Z,1008.405
2016-11-21T03:19:08.121Z,1008.396
2016-11-21T03:22:04.262Z,1008.471
2016-11-21T03:25:00.300Z,1008.515
2016-11-21T03:27:56.514Z,1008.551
2016-11-21T03:30:52.552Z,1008.563
2016-11-21T03:33:48.742Z,1008.631
2016-11-21T03:36:44.903Z,1008.679
2016-11-21T03:39:41.087Z,1008.644
2016-11-21T03:42:37.149Z,1008.646
2016-11-21T03:45:33.410Z,1008.682
2016-11-21T03:48:29.630Z,1008.687
2016-11-21T03:51:25.790Z,1008.694
2016-11-21T03:54:21.787Z,1008.712
2016-11-21T03:57:18.045Z,1008.639
2016-11-21T04:00:14.117Z,1008.545
2016-11-21T04:03:10.318Z,1008.509
2016-11-21T04:06:06.547Z,1008.521
2016-11-21T04:09:02.692Z,1008.451
2016-11-21T04:11:58.801Z,1008.487
2016-11-21T04:14:54.928Z,1008.495
2016-11-21T04:17:51.056Z,1008.514
2016-11-21T04:20:47.185Z,1008.486
2016-11-21T04:23:43.335Z,1008.457
2016-11-21T04:26:39.569Z,1008.440
2016-11-21T04:29:35.744Z,1008.469
2016-11-21T04:32:32.364Z,1008.423
2016-11-21T04:35:28.498Z,1008.434
2016-11-21T04:38:24.837Z,1008.481
2016-11-21T04:41:20.986Z,1008.534
2016-11-21T04:44:17.237Z,1008.546
2016-11-21T04:47:13.322Z,1008.531
2016-11-21T04:50:09.624Z,1008.596
2016-11-21T04:53:05.834Z,1008.739
2016-11-21T04:56:01.932Z,1008.795
2016-11-21T04:58:58.017Z,1008.894
2016-11-21T05:01:54.213Z,1008.984
2016-11-21T05:04:50.245Z,1008.960
2016-11-21T19:45:41.774Z,1007.555
2016-11-21T19:48:34.553Z,1007.505
2016-11-21T19:51:33.210Z,1007.540
2016-11-21T19:54:31.991Z,1007.592
2016-11-21T19:57:30.986Z,1007.638
2016-11-21T20:00:30.065Z,1007.651
2016-11-21T20:03:29.269Z,1007.653
2016-11-21T20:06:28.597Z,1007.645
2016-11-21T20:09:27.970Z,1007.585
2016-11-21T20:12:27.258Z,1007.633
2016-11-21T20:15:26.584Z,1007.664
2016-11-21T20:18:26.050Z,1007.654
2016-11-21T20:21:25.440Z,1007.683
2016-11-21T20:24:24.869Z,1007.741
2016-11-21T20:27:24.238Z,1007.816
2016-11-21T20:30:23.679Z,1007.769
2016-11-21T20:33:23.120Z,1007.813
2016-11-21T20:36:22.600Z,1007.864
2016-11-21T20:39:22.015Z,1007.826
2016-11-21T20:42:21.433Z,1007.852
2016-11-21T20:45:21.014Z,1007.843
2016-11-21T20:48:20.442Z,1007.936
2016-11-21T20:51:19.974Z,1007.957
2016-11-21T20:54:19.421Z,1007.953
2016-11-21T20:57:18.895Z,1007.988
2016-11-21T21:00:18.279Z,1008.016
2016-11-21T21:03:17.634Z,1007.927
2016-11-21T21:06:17.102Z,1007.868
2016-11-21T21:09:16.570Z,1007.844
2016-11-21T21:12:16.095Z,1007.871
2016-11-21T21:15:15.580Z,1007.879
2016-11-21T21:18:15.013Z,1007.874
2016-11-21T21:21:14.538Z,1007.880
2016-11-21T21:24:14.593Z,1007.902
2016-11-21T21:27:14.118Z,1007.928
2016-11-21T21:30:13.587Z,1008.039
2016-11-21T21:33:13.148Z,1008.170
2016-11-21T21:36:13.053Z,1008.159
2016-11-21T21:39:12.637Z,1008.106
2016-11-21T21:42:12.179Z,1008.133
2016-11-21T21:45:11.702Z,1008.125
2016-11-21T21:48:11.145Z,1008.180
2016-11-21T21:51:10.722Z,1007.998
2016-11-21T21:54:10.221Z,1008.038
2016-11-21T21:57:09.748Z,1008.066
2016-11-21T22:00:09.237Z,1008.109
2016-11-21T22:03:08.986Z,1008.112
2016-11-21T22:06:08.557Z,1008.147
2016-11-21T22:09:08.056Z,1008.075
2016-11-21T22:12:07.582Z,1008.133
2016-11-21T22:15:07.144Z,1008.104
2016-11-21T22:18:06.638Z,1008.133
2016-11-21T22:21:06.172Z,1008.076
2016-11-21T22:24:05.705Z,1008.021
2016-11-21T22:27:05.781Z,1008.047
2016-11-21T22:30:05.238Z,1008.037
2016-11-21T22:33:04.761Z,1008.006
2016-11-21T22:36:04.236Z,1008.028
2016-11-21T22:39:03.755Z,1007.985
2016-11-21T22:42:03.288Z,1008.025
2016-11-21T22:45:02.924Z,1008.057
2016-11-21T22:48:02.530Z,1008.097
2016-11-21T22:51:01.963Z,1008.160
2016-11-21T22:54:01.517Z,1008.154
2016-11-21T22:57:01.082Z,1008.159
2016-11-21T23:00:00.624Z,1008.156
2016-11-21T23:03:00.210Z,1008.188
2016-11-21T23:05:59.653Z,1008.218
2016-11-21T23:08:59.166Z,1008.234
2016-11-21T23:11:58.638Z,1008.307
2016-11-21T23:14:58.191Z,1008.369
2016-11-21T23:17:57.744Z,1008.352
2016-11-21T23:20:57.371Z,1008.211
2016-11-21T23:23:56.779Z,1008.233
2016-11-21T23:26:56.248Z,1008.197
2016-11-21T23:29:55.618Z,1008.105
2016-11-21T23:32:55.143Z,1008.117
2016-11-21T23:35:54.713Z,1008.211
2016-11-21T23:38:54.845Z,1008.373
2016-11-21T23:41:54.361Z,1008.352
2016-11-21T23:44:53.956Z,1008.384
2016-11-21T23:47:53.498Z,1008.381
2016-11-21T23:50:52.998Z,1008.451
2016-11-21T23:53:52.528Z,1008.493
2016-11-21T23:56:52.031Z,1008.468
2016-11-21T23:59:51.520Z,1008.449
